createdAt,value
2024-03-13T00:01:11.615Z,69.69
2024-03-13T00:03:43.913Z,68.89
2024-03-13T00:06:16.217Z,69.40
2024-03-13T00:08:47.858Z,68.94
2024-03-13T00:11:21.354Z,66.68
2024-03-13T00:13:53.134Z,68.79
2024-03-13T00:16:25.177Z,69.34
2024-03-13T00:18:57.103Z,68.35
2024-03-13T00:21:30.178Z,69.75
2024-03-13T00:24:01.995Z,70.88
2024-03-13T00:26:34.869Z,70.15
2024-03-13T00:29:06.667Z,68.18
2024-03-13T00:31:39.271Z,71.57
2024-03-13T00:34:11.522Z,69.63
2024-03-13T00:36:43.223Z,69.12
2024-03-13T00:39:15.965Z,68.26
2024-03-13T00:41:48.712Z,68.56
2024-03-13T00:44:20.349Z,68.82
2024-03-13T00:46:52.012Z,70.72
2024-03-13T00:49:23.725Z,70.19
2024-03-13T00:51:55.449Z,71.73
2024-03-13T00:54:29.461Z,72.57
2024-03-13T00:57:02.720Z,70.61
2024-03-13T00:59:35.317Z,69.42
2024-03-13T01:02:11.421Z,71.01
2024-03-13T01:04:46.781Z,71.55
2024-03-13T01:07:18.586Z,69.41
2024-03-13T01:09:51.191Z,69.29
2024-03-13T01:12:23.034Z,69.06
2024-03-13T01:14:54.691Z,73.67
2024-03-13T01:17:26.375Z,72.98
2024-03-13T01:19:58.461Z,70.30
2024-03-13T01:22:30.286Z,71.60
2024-03-13T01:25:02.039Z,71.01
2024-03-13T01:27:33.688Z,73.98
2024-03-13T01:30:06.083Z,72.33
2024-03-13T01:32:39.192Z,72.04
2024-03-13T01:35:14.350Z,70.82
2024-03-13T01:37:59.531Z,73.28
2024-03-13T01:40:54.906Z,71.02
2024-03-13T01:43:45.316Z,71.75
2024-03-13T01:46:38.350Z,70.30
2024-03-13T01:49:35.793Z,73.68
2024-03-13T01:52:30.792Z,70.60
2024-03-13T01:55:15.099Z,72.94
2024-03-13T01:58:02.073Z,73.23
2024-03-13T02:00:53.045Z,72.36
2024-03-13T02:03:28.006Z,73.53
2024-03-13T02:06:02.577Z,70.69
2024-03-13T02:08:34.452Z,69.25
2024-03-13T02:13:40.469Z,72.32
2024-03-13T02:16:12.288Z,71.46
2024-03-13T02:18:43.983Z,74.58
2024-03-13T02:21:15.730Z,72.86
2024-03-13T02:23:47.411Z,74.89
2024-03-13T02:26:20.251Z,74.32
2024-03-13T02:28:53.102Z,71.49
2024-03-13T02:31:24.827Z,72.72
2024-03-13T02:33:57.220Z,71.92
2024-03-13T02:36:29.596Z,72.18
2024-03-13T02:39:03.433Z,72.52
2024-03-13T02:41:35.667Z,71.41
2024-03-13T02:44:07.309Z,70.37
2024-03-13T02:46:39.137Z,71.54
2024-03-13T02:49:11.613Z,71.20
2024-03-13T02:51:43.282Z,71.06
2024-03-13T02:54:14.904Z,71.40
2024-03-13T02:56:47.756Z,72.90
2024-03-13T02:59:21.421Z,72.61
2024-03-13T03:01:53.776Z,74.13
2024-03-13T03:04:25.592Z,73.33
2024-03-13T03:06:57.424Z,72.31
2024-03-13T03:09:29.082Z,72.34
2024-03-13T03:12:00.699Z,73.98
2024-03-13T03:14:33.513Z,73.38
2024-03-13T03:17:05.124Z,73.14
2024-03-13T03:19:36.757Z,72.86
2024-03-13T03:22:09.856Z,71.28
2024-03-13T03:24:41.527Z,72.34
2024-03-13T03:27:14.221Z,72.74
2024-03-13T03:29:46.185Z,70.55
2024-03-13T03:32:18.021Z,70.41
2024-03-13T03:34:50.174Z,71.21
2024-03-13T03:37:22.420Z,67.99
2024-03-13T03:39:54.120Z,68.23
2024-03-13T03:42:25.847Z,67.37
2024-03-13T03:44:57.443Z,66.78
2024-03-13T03:47:29.093Z,66.72
2024-03-13T03:50:01.316Z,69.84
2024-03-13T03:52:33.052Z,67.99
2024-03-13T03:55:07.459Z,68.09
2024-03-13T03:57:42.003Z,67.86
2024-03-13T04:00:14.359Z,69.09
2024-03-13T04:02:45.933Z,69.22
2024-03-13T04:05:19.268Z,70.75
2024-03-13T04:07:52.612Z,68.78
2024-03-13T04:10:27.392Z,71.66
2024-03-13T04:12:59.611Z,68.90
2024-03-13T04:15:31.254Z,69.91
2024-03-13T04:18:04.917Z,70.74
2024-03-13T04:20:36.806Z,71.19
2024-03-13T04:23:08.761Z,71.06
2024-03-13T04:25:44.548Z,71.15
2024-03-13T04:28:16.873Z,70.37
2024-03-13T04:30:48.545Z,71.62
2024-03-13T04:33:20.942Z,69.69
2024-03-13T04:35:52.543Z,69.63
2024-03-13T04:38:25.587Z,69.29
2024-03-13T04:40:57.311Z,69.46
2024-03-13T04:43:29.016Z,71.67
2024-03-13T04:46:00.716Z,70.77
2024-03-13T04:48:32.738Z,69.60
2024-03-13T04:51:04.704Z,69.56
2024-03-13T04:53:37.234Z,68.43
2024-03-13T04:56:08.825Z,69.15
2024-03-13T04:58:41.099Z,70.56
2024-03-13T05:01:20.150Z,73.15
2024-03-13T05:03:52.515Z,72.80
2024-03-13T05:06:24.244Z,69.43
2024-03-13T05:08:56.214Z,71.55
2024-03-13T05:11:27.968Z,72.02
2024-03-13T05:13:59.662Z,72.48
2024-03-13T05:16:31.337Z,71.34
2024-03-13T05:19:03.034Z,72.43
2024-03-13T05:21:34.656Z,70.70
2024-03-13T05:24:08.028Z,71.63
2024-03-13T05:26:39.841Z,70.35
2024-03-13T05:29:11.801Z,72.31
2024-03-13T05:31:43.500Z,72.59
2024-03-13T05:34:15.280Z,71.86
2024-03-13T05:36:47.403Z,73.97
2024-03-13T05:39:19.133Z,73.85
2024-03-13T05:41:51.038Z,74.78
2024-03-13T05:44:22.695Z,75.06
2024-03-13T05:46:57.871Z,75.48
2024-03-13T05:49:29.662Z,74.60
2024-03-13T05:52:01.416Z,74.23
2024-03-13T05:54:33.472Z,73.96
2024-03-13T05:57:05.204Z,71.93
2024-03-13T05:59:36.970Z,69.97
2024-03-13T06:02:08.691Z,70.06
2024-03-13T06:04:40.440Z,70.48
2024-03-13T06:07:12.147Z,69.27
2024-03-13T06:09:43.814Z,70.53
2024-03-13T06:12:15.462Z,69.83
2024-03-13T06:14:47.521Z,70.61
2024-03-13T06:17:19.112Z,69.51
2024-03-13T06:19:50.827Z,70.78
2024-03-13T06:22:22.495Z,72.16
2024-03-13T06:24:56.740Z,72.22
2024-03-13T06:27:31.230Z,71.21
2024-03-13T06:30:04.542Z,69.92
2024-03-13T06:32:36.542Z,70.19
2024-03-13T06:35:08.566Z,70.87
2024-03-13T06:37:40.790Z,69.16
2024-03-13T06:40:12.550Z,68.85
2024-03-13T06:42:44.232Z,71.24
2024-03-13T06:45:21.388Z,70.03
2024-03-13T06:47:59.834Z,70.30
2024-03-13T06:50:32.339Z,71.00
2024-03-13T06:53:05.784Z,73.28
2024-03-13T06:55:37.759Z,73.21
2024-03-13T06:58:09.492Z,72.17
2024-03-13T07:00:42.448Z,73.36
2024-03-13T07:03:14.280Z,73.38
2024-03-13T07:05:46.024Z,72.60
2024-03-13T07:08:17.938Z,70.91
2024-03-13T07:10:49.792Z,70.97
2024-03-13T07:13:21.481Z,72.05
2024-03-13T07:15:53.425Z,73.49
2024-03-13T07:18:25.332Z,73.25
2024-03-13T07:20:57.045Z,72.78
2024-03-13T07:23:29.756Z,71.96
2024-03-13T07:26:02.121Z,71.53
2024-03-13T07:28:34.573Z,72.51
2024-03-13T07:31:08.655Z,70.22
2024-03-13T07:33:40.445Z,70.63
2024-03-13T07:36:12.139Z,69.50
2024-03-13T07:38:43.929Z,71.32
2024-03-13T07:41:16.473Z,71.67
2024-03-13T07:43:49.512Z,72.13
2024-03-13T07:46:21.187Z,71.47
2024-03-13T07:48:52.866Z,71.17
2024-03-13T07:51:24.589Z,70.92
2024-03-13T07:53:56.304Z,71.33
2024-03-13T07:56:27.913Z,72.81
2024-03-13T07:58:59.588Z,70.50
2024-03-13T08:01:31.342Z,68.30
2024-03-13T08:04:03.117Z,68.12
2024-03-13T09:06:15.456Z,71.38
2024-03-13T09:08:48.608Z,70.98
2024-03-13T09:11:20.818Z,74.26
2024-03-13T09:13:52.557Z,75.27
2024-03-13T09:16:24.219Z,72.19
2024-03-13T09:18:56.305Z,72.30
2024-03-13T09:21:28.132Z,75.68
2024-03-13T09:24:00.162Z,73.54
2024-03-13T09:26:37.845Z,72.10
2024-03-13T09:29:09.582Z,70.98
2024-03-13T09:31:43.914Z,71.44
2024-03-13T09:34:15.583Z,73.61
2024-03-13T09:36:47.235Z,71.09
2024-03-13T09:39:19.036Z,72.93
2024-03-13T09:41:56.729Z,72.61
2024-03-13T09:44:31.019Z,72.08
2024-03-13T09:47:06.661Z,72.58
2024-03-13T09:49:39.012Z,72.75
2024-03-13T09:52:15.914Z,73.33
2024-03-13T09:54:48.195Z,74.12
2024-03-13T09:57:21.731Z,73.06
2024-03-13T09:59:57.665Z,71.21
2024-03-13T10:02:36.931Z,70.84
2024-03-13T10:05:12.655Z,71.93
2024-03-13T10:07:46.862Z,72.10
2024-03-13T10:10:27.313Z,71.78
2024-03-13T10:13:02.946Z,71.32
2024-03-13T10:15:35.149Z,70.50
2024-03-13T10:18:20.948Z,70.31
2024-03-13T10:21:03.577Z,71.06
2024-03-13T10:23:40.117Z,69.04
2024-03-13T10:26:13.326Z,70.76
2024-03-13T10:28:45.014Z,67.66
2024-03-13T10:31:17.714Z,66.53
2024-03-13T10:33:50.909Z,68.59
2024-03-13T10:36:22.941Z,71.84
2024-03-13T10:38:58.007Z,70.01
2024-03-13T10:41:30.923Z,68.42
2024-03-13T10:44:04.818Z,66.61
2024-03-13T10:46:38.034Z,67.80
2024-03-13T10:49:16.894Z,67.69
2024-03-13T10:51:48.874Z,68.49
2024-03-13T10:54:20.706Z,67.64
2024-03-13T10:56:55.160Z,66.14
2024-03-13T10:59:30.276Z,68.95
2024-03-13T11:02:05.113Z,68.86
2024-03-13T11:04:38.026Z,68.63
2024-03-13T11:07:13.897Z,68.76
2024-03-13T11:09:45.761Z,67.39
2024-03-13T11:12:20.747Z,67.81
2024-03-13T11:14:57.167Z,68.85
2024-03-13T11:17:31.200Z,67.57
2024-03-13T11:20:08.475Z,67.09
2024-03-13T11:22:42.766Z,67.18
2024-03-13T11:25:19.702Z,68.30
2024-03-13T11:27:58.096Z,68.97
2024-03-13T11:30:30.353Z,68.63
2024-03-13T11:33:05.334Z,68.89
2024-03-13T11:35:37.430Z,68.61
2024-03-13T11:38:11.741Z,66.79
2024-03-13T11:40:43.711Z,67.81
2024-03-13T11:43:26.488Z,67.10
2024-03-13T11:46:00.761Z,68.78
2024-03-13T11:48:32.650Z,68.68
2024-03-13T11:51:07.719Z,68.15
2024-03-13T11:53:42.669Z,66.36
2024-03-13T11:56:22.475Z,65.56
2024-03-13T11:58:54.158Z,66.10
2024-03-13T12:01:27.618Z,66.74
2024-03-13T12:03:59.665Z,66.69
2024-03-13T12:06:39.077Z,67.48
2024-03-13T12:09:17.459Z,68.00
2024-03-13T12:11:55.596Z,69.81
2024-03-13T12:14:27.237Z,66.15
2024-03-13T12:17:00.338Z,68.08
2024-03-13T12:19:32.212Z,67.72
2024-03-13T12:22:03.971Z,68.58
2024-03-13T12:24:35.603Z,68.29
2024-03-13T12:27:09.240Z,69.07
2024-03-13T12:29:42.134Z,66.96
2024-03-13T12:32:14.463Z,67.85
2024-03-13T12:34:46.108Z,66.88
2024-03-13T12:37:18.041Z,68.68
2024-03-13T12:39:51.173Z,69.30
2024-03-13T12:42:26.528Z,69.27
2024-03-13T12:44:58.177Z,68.93
2024-03-13T12:47:29.925Z,68.22
2024-03-13T12:50:07.522Z,68.07
2024-03-13T12:52:40.039Z,67.54
2024-03-13T12:55:14.485Z,67.56
2024-03-13T12:57:49.711Z,67.52
2024-03-13T13:00:21.981Z,66.44
2024-03-13T13:02:55.179Z,67.82
2024-03-13T13:05:27.332Z,68.69
2024-03-13T13:08:00.393Z,69.86
2024-03-13T13:10:32.085Z,70.52
2024-03-13T13:13:03.941Z,69.44
2024-03-13T13:15:36.824Z,69.07
2024-03-13T13:18:10.262Z,69.68
2024-03-13T13:20:42.020Z,70.58
2024-03-13T13:23:14.266Z,71.02
2024-03-13T13:25:46.539Z,68.42
2024-03-13T13:28:19.898Z,69.36
2024-03-13T13:30:51.530Z,72.18
2024-03-13T13:33:23.636Z,69.95
2024-03-13T13:35:56.019Z,70.41
2024-03-13T13:38:30.086Z,70.22
2024-03-13T13:41:01.799Z,69.83
2024-03-13T13:43:33.772Z,70.83
2024-03-13T13:46:09.815Z,68.82
2024-03-13T13:48:42.502Z,71.05
2024-03-13T13:51:14.323Z,70.64
2024-03-13T13:53:46.039Z,71.88
2024-03-13T13:56:17.658Z,70.86
2024-03-13T13:58:51.498Z,69.45
2024-03-13T14:01:23.827Z,70.81
2024-03-13T14:03:55.568Z,72.18
2024-03-13T14:06:27.301Z,71.42
2024-03-13T14:09:01.420Z,71.48
2024-03-13T14:11:33.125Z,68.94
2024-03-13T14:14:04.813Z,69.83
2024-03-13T14:16:37.341Z,68.94
2024-03-13T14:19:16.151Z,69.57
2024-03-13T14:21:47.844Z,70.55
2024-03-13T14:24:19.556Z,71.13
2024-03-13T14:26:51.354Z,69.53
2024-03-13T14:29:26.077Z,70.37
2024-03-13T14:31:58.414Z,69.45
2024-03-13T14:34:30.004Z,69.01
2024-03-13T14:37:02.188Z,71.79
2024-03-13T14:39:33.941Z,71.52
2024-03-13T14:42:15.344Z,71.66
2024-03-13T14:44:50.891Z,69.47
2024-03-13T14:47:22.536Z,70.81
2024-03-13T14:49:54.711Z,70.70
2024-03-13T14:52:26.463Z,69.28
2024-03-13T14:54:58.379Z,69.75
2024-03-13T14:57:30.293Z,69.49
2024-03-13T15:00:02.007Z,70.02
2024-03-13T15:02:34.322Z,68.32
2024-03-13T15:05:08.368Z,69.03
2024-03-13T15:07:40.055Z,68.28
2024-03-13T15:10:12.714Z,68.10
2024-03-13T15:12:45.594Z,68.67
2024-03-13T15:15:17.465Z,68.82
2024-03-13T15:17:52.333Z,68.78
2024-03-13T15:20:24.882Z,69.04
2024-03-13T15:22:56.641Z,68.62
2024-03-13T15:25:28.566Z,69.15
2024-03-13T15:28:01.931Z,68.61
2024-03-13T15:30:33.684Z,68.27
2024-03-13T15:33:05.642Z,67.61
2024-03-13T15:35:39.403Z,68.24
2024-03-13T15:38:11.315Z,68.66
2024-03-13T15:40:43.062Z,68.81
2024-03-13T15:43:16.207Z,68.55
2024-03-13T15:45:48.613Z,68.78
2024-03-13T15:48:24.419Z,68.71
2024-03-13T15:50:56.433Z,68.02
2024-03-13T15:53:28.092Z,67.53
2024-03-13T15:56:00.009Z,66.56
2024-03-13T15:58:31.655Z,68.21
2024-03-13T16:01:05.745Z,69.85
2024-03-13T16:03:38.441Z,68.88
2024-03-13T16:06:11.148Z,68.41
2024-03-13T16:08:54.687Z,67.47
2024-03-13T16:11:29.911Z,70.87
2024-03-13T16:14:01.969Z,68.17
2024-03-13T16:16:35.021Z,66.77
2024-03-13T16:19:06.896Z,66.79
2024-03-13T16:21:38.596Z,68.30
2024-03-13T16:24:12.882Z,68.05
2024-03-13T16:26:45.368Z,68.32
2024-03-13T16:29:17.057Z,68.29
2024-03-13T16:31:49.032Z,69.06
2024-03-13T16:34:20.629Z,68.85
2024-03-13T16:36:52.409Z,68.99
2024-03-13T16:39:29.241Z,68.04
2024-03-13T16:42:00.936Z,67.13
2024-03-13T16:44:32.640Z,66.97
2024-03-13T16:47:04.595Z,66.91
2024-03-13T16:49:36.469Z,67.53
2024-03-13T16:52:08.155Z,66.77
2024-03-13T16:54:39.796Z,66.36
2024-03-13T16:57:11.560Z,66.88
2024-03-13T16:59:44.150Z,67.11
2024-03-13T17:02:16.377Z,67.07
2024-03-13T17:04:48.074Z,66.57
2024-03-13T17:07:19.744Z,66.48
2024-03-13T17:09:51.548Z,66.86
2024-03-13T17:12:23.179Z,66.25
2024-03-13T17:14:54.876Z,66.82
2024-03-13T17:17:26.876Z,67.28
2024-03-13T17:19:58.467Z,67.09
2024-03-13T17:22:30.163Z,66.95
2024-03-13T17:25:01.784Z,66.85
2024-03-13T17:27:33.659Z,66.63
2024-03-13T17:30:06.356Z,66.60
2024-03-13T17:32:39.175Z,66.91
2024-03-13T17:35:11.542Z,67.64
2024-03-13T17:37:43.826Z,67.22
2024-03-13T17:40:17.615Z,66.62
2024-03-13T17:42:49.462Z,67.31
2024-03-13T17:45:21.272Z,67.95
2024-03-13T17:47:52.991Z,69.93
2024-03-13T17:50:26.077Z,67.80
2024-03-13T17:52:58.405Z,68.00
2024-03-13T17:55:30.472Z,67.77
2024-03-13T17:58:02.156Z,67.20
2024-03-13T18:00:33.839Z,67.59
2024-03-13T18:03:05.742Z,67.92
2024-03-13T18:05:38.067Z,67.96
2024-03-13T18:08:09.703Z,67.45
2024-03-13T18:10:42.504Z,67.34
2024-03-13T18:13:14.986Z,67.17
2024-03-13T18:15:46.953Z,67.44
2024-03-13T18:18:18.634Z,68.26
2024-03-13T18:20:53.072Z,67.78
2024-03-13T18:23:24.686Z,67.55
2024-03-13T18:25:56.372Z,67.22
2024-03-13T18:28:29.810Z,66.53
2024-03-13T18:31:01.501Z,67.08
2024-03-13T18:33:34.251Z,68.69
2024-03-13T18:36:12.789Z,68.99
2024-03-13T18:38:44.437Z,68.08
2024-03-13T18:41:18.033Z,68.43
2024-03-13T18:43:49.689Z,67.04
2024-03-13T18:46:23.266Z,67.32
2024-03-13T18:48:58.057Z,66.92
2024-03-13T18:51:32.616Z,67.00
2024-03-13T18:54:06.792Z,67.07
2024-03-13T18:56:38.631Z,67.56
2024-03-13T18:59:11.422Z,67.96
2024-03-13T19:01:43.409Z,67.10
2024-03-13T19:04:15.133Z,67.41
2024-03-13T19:06:46.888Z,67.14
2024-03-13T19:09:21.459Z,66.44
2024-03-13T19:11:53.306Z,67.05
2024-03-13T19:14:24.975Z,66.72
2024-03-13T19:16:56.734Z,67.67
2024-03-13T19:19:28.492Z,67.20
2024-03-13T19:22:00.160Z,68.31
2024-03-13T19:24:36.166Z,68.54
2024-03-13T19:27:09.990Z,68.42
2024-03-13T19:29:41.882Z,68.04
2024-03-13T19:32:15.939Z,68.10
2024-03-13T19:34:47.642Z,69.19
2024-03-13T19:37:19.963Z,68.18
2024-03-13T19:39:51.613Z,68.49
2024-03-13T19:42:23.483Z,68.30
2024-03-13T19:44:56.181Z,69.56
2024-03-13T19:47:30.825Z,69.23
2024-03-13T19:50:02.614Z,69.15
2024-03-13T19:52:34.325Z,68.82
2024-03-13T19:55:07.171Z,68.95
2024-03-13T19:57:41.268Z,67.89
2024-03-13T20:00:15.162Z,67.76
2024-03-13T20:02:47.847Z,67.69
2024-03-13T20:05:19.658Z,68.78
2024-03-13T20:07:51.613Z,68.85
2024-03-13T20:10:26.443Z,69.80
2024-03-13T20:12:58.391Z,67.76
2024-03-13T20:15:30.523Z,67.12
2024-03-13T20:18:02.391Z,67.66
2024-03-13T20:20:37.563Z,68.44
2024-03-13T20:23:10.512Z,67.89
2024-03-13T20:25:42.134Z,67.89
2024-03-13T20:28:13.795Z,68.11
2024-03-13T20:30:45.629Z,67.96
2024-03-13T20:33:17.391Z,67.86
2024-03-13T20:35:49.231Z,68.18
2024-03-13T20:38:21.961Z,67.27
2024-03-13T20:40:53.621Z,67.61
2024-03-13T20:43:25.233Z,68.62
2024-03-13T20:45:56.888Z,67.66
2024-03-13T20:48:28.629Z,68.48
2024-03-13T20:51:00.526Z,68.40
2024-03-13T20:53:32.432Z,68.69
2024-03-13T20:56:06.752Z,67.54
2024-03-13T20:58:38.566Z,68.27
2024-03-13T21:01:13.047Z,67.46
2024-03-13T21:03:44.855Z,68.25
2024-03-13T21:06:18.357Z,67.98
2024-03-13T21:08:50.594Z,67.19
2024-03-13T21:11:23.496Z,66.80
2024-03-13T21:13:56.490Z,68.14
2024-03-13T21:16:28.232Z,67.60
2024-03-13T21:19:01.710Z,68.16
2024-03-13T21:21:33.493Z,67.84
2024-03-13T21:24:06.069Z,69.14
2024-03-13T21:26:41.562Z,68.18
2024-03-13T21:29:18.194Z,67.50
2024-03-13T21:31:50.470Z,68.29
2024-03-13T21:34:28.204Z,67.91
2024-03-13T21:37:05.602Z,67.89
2024-03-13T21:39:37.595Z,69.13
2024-03-13T21:42:09.463Z,69.15
2024-03-13T21:44:43.264Z,69.33
2024-03-13T21:47:15.104Z,68.96
2024-03-13T21:49:46.731Z,68.95
2024-03-13T21:52:18.372Z,68.79
2024-03-13T21:54:49.970Z,69.50
2024-03-13T21:57:23.368Z,69.71
2024-03-13T21:59:54.984Z,69.16
2024-03-13T22:02:26.840Z,68.69
2024-03-13T22:04:58.543Z,70.33
2024-03-13T22:07:30.612Z,68.53
2024-03-13T22:10:04.475Z,69.69
2024-03-13T22:12:36.332Z,69.66
2024-03-13T22:15:08.734Z,69.04
2024-03-13T22:17:40.474Z,69.90
2024-03-13T22:20:12.267Z,70.18
2024-03-13T22:22:44.584Z,70.99
2024-03-13T22:25:16.321Z,69.67
2024-03-13T22:27:48.131Z,69.70
2024-03-13T22:30:19.846Z,68.82
2024-03-13T22:32:51.613Z,69.02
2024-03-13T22:35:23.277Z,69.12
2024-03-13T22:37:54.914Z,70.13
2024-03-13T22:40:26.732Z,69.70
2024-03-13T22:42:58.627Z,69.48
2024-03-13T22:45:31.482Z,69.15
2024-03-13T22:48:04.822Z,68.71
2024-03-13T22:50:36.510Z,68.70
2024-03-13T22:53:08.325Z,69.42
2024-03-13T22:55:39.948Z,70.85
2024-03-13T22:58:11.633Z,68.83
2024-03-13T23:00:44.761Z,70.71
2024-03-13T23:03:16.785Z,71.37
2024-03-13T23:05:48.481Z,70.61
2024-03-13T23:08:20.185Z,71.37
2024-03-13T23:10:51.918Z,70.57
2024-03-13T23:13:23.845Z,69.77
2024-03-13T23:15:57.173Z,71.24
2024-03-13T23:18:29.290Z,70.34
2024-03-13T23:21:02.069Z,69.91
2024-03-13T23:23:33.843Z,70.86
2024-03-13T23:26:06.082Z,69.20
2024-03-13T23:28:37.763Z,69.79
2024-03-13T23:31:09.437Z,69.55
2024-03-13T23:33:41.196Z,69.15
2024-03-13T23:36:13.897Z,70.30
2024-03-13T23:38:45.712Z,69.38
2024-03-13T23:41:17.972Z,69.99
2024-03-13T23:43:49.586Z,68.60
2024-03-13T23:46:21.232Z,69.18
2024-03-13T23:48:52.996Z,67.88
2024-03-13T23:51:25.072Z,68.04
2024-03-13T23:53:56.842Z,69.76
2024-03-13T23:56:28.487Z,68.91
2024-03-13T23:59:00.427Z,69.27
